createdAt,value
2019-06-08T00:00:05.290Z,1.40
2019-06-08T00:02:33.044Z,0.93
2019-06-08T00:05:00.931Z,1.37
2019-06-08T00:07:28.676Z,1.23
2019-06-08T00:09:56.457Z,1.10
2019-06-08T00:12:24.289Z,0.97
2019-06-08T00:14:52.099Z,1.10
2019-06-08T00:17:34.565Z,1.10
2019-06-08T00:19:49.543Z,2.93
2019-06-08T00:22:17.662Z,0.90
2019-06-08T00:24:45.605Z,1.20
2019-06-08T00:27:14.032Z,1.40
2019-06-08T00:29:42.035Z,0.97
2019-06-08T00:32:09.897Z,0.80
2019-06-08T00:34:37.690Z,1.20
2019-06-08T00:37:05.464Z,0.90
2019-06-08T00:39:33.266Z,1.27
2019-06-08T00:42:01.058Z,1.23
2019-06-08T00:44:28.800Z,1.00
2019-06-08T00:46:56.572Z,1.10
2019-06-08T00:49:24.734Z,1.00
2019-06-08T00:51:52.633Z,1.00
2019-06-08T00:54:21.545Z,1.30
2019-06-08T00:56:49.515Z,1.10
2019-06-08T00:59:17.920Z,1.00
2019-06-08T01:01:45.863Z,1.27
2019-06-08T01:04:13.630Z,0.90
2019-06-08T01:06:42.085Z,1.00
2019-06-08T01:09:09.879Z,0.90
2019-06-08T01:11:37.623Z,1.03
2019-06-08T01:14:05.426Z,0.90
2019-06-08T01:16:33.199Z,1.10
2019-06-08T01:19:00.991Z,1.00
2019-06-08T01:21:29.935Z,1.30
2019-06-08T01:23:57.974Z,0.90
2019-06-08T01:26:26.063Z,1.00
2019-06-08T01:28:53.922Z,0.77
2019-06-08T01:31:22.426Z,0.90
2019-06-08T01:33:50.304Z,1.13
2019-06-08T01:36:18.082Z,0.87
2019-06-08T01:38:45.812Z,1.10
2019-06-08T01:41:13.605Z,1.30
2019-06-08T01:43:41.429Z,0.90
2019-06-08T01:46:09.270Z,1.83
2019-06-08T01:48:37.032Z,1.00
2019-06-08T01:51:04.807Z,0.80
2019-06-08T01:53:33.006Z,1.80
2019-06-08T01:56:00.919Z,1.00
2019-06-08T01:58:29.492Z,0.80
2019-06-08T02:00:57.490Z,1.17
2019-06-08T02:03:26.309Z,0.80
2019-06-08T02:05:54.288Z,1.00
2019-06-08T02:08:22.027Z,1.43
2019-06-08T02:10:49.895Z,0.70
2019-06-08T02:13:17.706Z,1.07
2019-06-08T02:15:45.459Z,1.10
2019-06-08T02:18:13.226Z,1.07
2019-06-08T02:20:40.933Z,1.10
2019-06-08T02:23:08.794Z,0.87
2019-06-08T02:25:36.666Z,0.90
2019-06-08T02:28:04.488Z,0.80
2019-06-08T02:30:36.484Z,0.73
2019-06-08T02:33:03.907Z,1.10
2019-06-08T02:35:32.772Z,0.90
2019-06-08T02:38:01.183Z,1.20
2019-06-08T02:40:30.281Z,1.17
2019-06-08T02:42:58.587Z,1.07
2019-06-08T02:45:26.387Z,0.90
2019-06-08T02:47:54.137Z,0.80
2019-06-08T02:50:56.899Z,0.70
2019-06-08T02:53:26.134Z,0.90
2019-06-08T02:55:54.551Z,0.80
2019-06-08T02:58:22.381Z,0.73
2019-06-08T03:00:52.047Z,0.77
2019-06-08T03:03:19.955Z,0.97
2019-06-08T03:05:49.157Z,0.90
2019-06-08T03:08:19.251Z,0.80
2019-06-08T03:10:52.500Z,0.77
2019-06-08T03:13:22.562Z,1.07
2019-06-08T03:15:50.400Z,0.70
2019-06-08T03:18:18.281Z,1.00
2019-06-08T03:20:46.141Z,1.10
2019-06-08T03:23:13.889Z,0.70
2019-06-08T03:25:51.788Z,1.30
2019-06-08T03:28:11.355Z,1.27
2019-06-08T03:30:47.467Z,1.13
2019-06-08T03:33:10.680Z,0.90
2019-06-08T03:35:47.135Z,0.83
2019-06-08T03:38:08.121Z,0.90
2019-06-08T03:40:35.971Z,1.13
2019-06-08T03:43:04.014Z,1.03
2019-06-08T03:45:34.276Z,0.60
2019-06-08T03:48:02.254Z,0.87
2019-06-08T03:50:30.039Z,1.23
2019-06-08T03:52:57.974Z,1.00
2019-06-08T03:55:25.701Z,1.00
2019-06-08T03:57:53.462Z,0.70
2019-06-08T04:00:21.470Z,1.10
2019-06-08T04:02:51.092Z,0.80
2019-06-08T04:05:18.834Z,1.10
2019-06-08T04:07:46.654Z,1.00
2019-06-08T04:10:14.540Z,0.80
2019-06-08T04:12:44.072Z,1.13
2019-06-08T04:15:12.060Z,0.80
2019-06-08T04:17:39.893Z,1.10
2019-06-08T04:20:11.685Z,1.57
2019-06-08T04:22:44.717Z,1.20
2019-06-08T04:25:13.329Z,1.17
2019-06-08T04:27:42.229Z,0.97
2019-06-08T04:30:10.946Z,1.50
2019-06-08T04:32:40.178Z,1.30
2019-06-08T04:35:08.647Z,1.23
2019-06-08T04:37:38.018Z,1.00
2019-06-08T04:40:07.153Z,1.10
2019-06-08T04:42:34.911Z,1.37
2019-06-08T04:45:02.856Z,1.50
2019-06-08T04:47:30.600Z,1.00
2019-06-08T04:49:58.355Z,1.20
2019-06-08T04:52:26.125Z,2.30
2019-06-08T04:54:53.992Z,1.57
2019-06-08T04:57:21.736Z,1.87
2019-06-08T04:59:50.408Z,1.37
2019-06-08T05:02:18.334Z,1.10
2019-06-08T05:04:47.058Z,1.70
2019-06-08T05:07:15.084Z,1.03
2019-06-08T05:09:43.073Z,1.40
2019-06-08T05:12:10.821Z,1.60
2019-06-08T05:14:39.116Z,1.13
2019-06-08T05:17:07.044Z,1.27
2019-06-08T05:19:35.211Z,1.30
2019-06-08T05:22:03.346Z,1.60
2019-06-08T05:24:31.108Z,1.77
2019-06-08T05:26:58.868Z,1.20
2019-06-08T05:29:26.633Z,2.30
2019-06-08T05:31:54.378Z,1.67
2019-06-08T05:34:22.113Z,1.40
2019-06-08T05:36:50.167Z,1.57
2019-06-08T05:39:18.102Z,2.00
2019-06-08T05:41:45.937Z,1.00
2019-06-08T05:44:13.684Z,1.30
2019-06-08T05:46:41.768Z,1.20
2019-06-08T05:49:09.606Z,1.60
2019-06-08T05:51:37.360Z,1.40
2019-06-08T05:54:05.123Z,1.40
2019-06-08T05:56:32.889Z,1.10
2019-06-08T05:59:00.620Z,1.00
2019-06-08T06:01:28.448Z,1.13
2019-06-08T06:03:56.184Z,0.90
2019-06-08T06:06:23.968Z,1.20
2019-06-08T06:08:51.693Z,1.00
2019-06-08T06:11:19.478Z,1.20
2019-06-08T06:13:47.458Z,2.13
2019-06-08T06:16:15.358Z,0.80
2019-06-08T06:18:43.114Z,1.30
2019-06-08T06:21:12.469Z,0.90
2019-06-08T06:23:41.159Z,1.30
2019-06-08T06:26:09.036Z,0.90
2019-06-08T06:28:36.774Z,1.57
2019-06-08T06:31:04.649Z,1.03
2019-06-08T06:33:32.430Z,2.00
2019-06-08T06:36:00.219Z,1.13
2019-06-08T06:38:27.964Z,1.33
2019-06-08T06:40:55.723Z,1.57
2019-06-08T06:43:23.502Z,2.00
2019-06-08T06:45:52.149Z,1.70
2019-06-08T06:48:23.407Z,1.37
2019-06-08T06:50:50.457Z,1.80
2019-06-08T06:53:18.251Z,1.67
2019-06-08T06:55:46.930Z,1.30
2019-06-08T06:58:14.741Z,0.90
2019-06-08T07:00:43.260Z,1.47
2019-06-08T07:03:11.106Z,1.30
2019-06-08T07:05:38.877Z,2.20
2019-06-08T07:08:06.633Z,1.20
2019-06-08T07:10:34.474Z,1.27
2019-06-08T07:13:02.354Z,1.60
2019-06-08T07:15:30.233Z,0.77
2019-06-08T07:17:58.576Z,0.90
2019-06-08T07:20:26.544Z,1.70
2019-06-08T07:22:54.686Z,1.57
2019-06-08T07:25:22.489Z,1.60
2019-06-08T07:27:50.540Z,1.43
2019-06-08T07:30:18.409Z,1.80
2019-06-08T07:32:46.547Z,1.30
2019-06-08T07:35:15.386Z,1.50
2019-06-08T07:37:43.121Z,1.60
2019-06-08T07:40:10.866Z,1.90
2019-06-08T07:42:38.635Z,1.57
2019-06-08T07:45:07.104Z,2.10
2019-06-08T07:47:34.852Z,2.10
2019-06-08T07:50:04.783Z,1.57
2019-06-08T07:52:32.740Z,1.23
2019-06-08T07:55:00.507Z,1.23
2019-06-08T07:57:28.268Z,1.73
2019-06-08T07:59:56.403Z,1.60
2019-06-08T08:02:26.210Z,1.30
2019-06-08T08:04:54.602Z,1.40
2019-06-08T08:07:22.541Z,1.23
2019-06-08T08:09:50.605Z,1.43
2019-06-08T08:12:18.675Z,1.30
2019-06-08T08:14:46.427Z,1.30
2019-06-08T08:17:14.296Z,1.40
2019-06-08T08:19:42.039Z,1.50
2019-06-08T08:22:22.187Z,1.73
2019-06-08T08:24:39.544Z,1.87
2019-06-08T08:27:08.353Z,1.27
2019-06-08T08:29:38.236Z,1.40
2019-06-08T08:32:07.586Z,1.70
2019-06-08T08:34:38.016Z,1.60
2019-06-08T08:37:09.252Z,1.87
2019-06-08T08:39:37.502Z,2.00
2019-06-08T08:42:05.622Z,1.53
2019-06-08T08:44:33.510Z,1.63
2019-06-08T08:47:02.631Z,1.53
2019-06-08T08:49:30.831Z,1.47
2019-06-08T08:52:00.267Z,0.77
2019-06-08T08:54:29.748Z,1.77
2019-06-08T08:57:01.746Z,1.60
2019-06-08T08:59:28.046Z,1.50
2019-06-08T09:01:57.489Z,2.10
2019-06-08T09:04:27.639Z,0.73
2019-06-08T09:06:57.913Z,1.27
2019-06-08T09:09:25.119Z,1.40
2019-06-08T09:11:54.056Z,1.03
2019-06-08T09:14:22.903Z,1.50
2019-06-08T09:16:51.908Z,1.70
2019-06-08T09:19:20.954Z,1.10
2019-06-08T09:21:49.813Z,1.73
2019-06-08T09:24:18.681Z,1.50
2019-06-08T09:26:47.760Z,1.50
2019-06-08T09:29:15.707Z,1.53
2019-06-08T09:31:45.348Z,1.40
2019-06-08T09:34:15.432Z,1.90
2019-06-08T09:36:42.735Z,1.10
2019-06-08T09:39:12.982Z,2.27
2019-06-08T09:41:40.213Z,2.00
2019-06-08T09:44:08.693Z,1.23
2019-06-08T09:46:38.507Z,1.37
2019-06-08T09:49:09.315Z,1.17
2019-06-08T09:51:37.900Z,1.63
2019-06-08T09:54:08.692Z,1.60
2019-06-08T09:56:37.806Z,0.93
2019-06-08T09:59:10.040Z,1.53
2019-06-08T10:01:34.836Z,1.80
2019-06-08T10:04:04.091Z,1.50
2019-06-08T10:06:32.280Z,1.00
2019-06-08T10:09:00.741Z,1.70
2019-06-08T10:11:28.585Z,2.30
2019-06-08T10:13:59.008Z,1.90
2019-06-08T10:16:27.909Z,2.70
2019-06-08T10:18:57.644Z,1.87
2019-06-08T10:21:28.202Z,2.03
2019-06-08T10:23:58.288Z,1.27
2019-06-08T10:26:24.853Z,1.37
2019-06-08T10:28:53.411Z,2.10
2019-06-08T10:31:35.716Z,1.20
2019-06-08T10:33:50.853Z,1.70
2019-06-08T10:36:18.649Z,1.90
2019-06-08T10:38:47.947Z,1.63
2019-06-08T10:41:18.995Z,2.37
2019-06-08T10:43:48.058Z,1.73
2019-06-08T10:46:19.948Z,1.70
2019-06-08T10:48:45.100Z,1.60
2019-06-08T10:51:13.253Z,2.03
2019-06-08T10:53:52.656Z,1.10
2019-06-08T10:56:12.341Z,1.50
2019-06-08T10:58:40.357Z,1.40
2019-06-08T11:01:12.105Z,1.40
2019-06-08T11:03:38.834Z,1.70
2019-06-08T11:06:11.369Z,2.13
2019-06-08T11:08:38.862Z,1.67
2019-06-08T11:11:09.825Z,1.67
2019-06-08T11:13:35.859Z,1.83
2019-06-08T11:16:05.347Z,1.83
2019-06-08T11:18:33.284Z,1.70
2019-06-08T11:21:02.504Z,1.50
2019-06-08T11:23:30.844Z,1.80
2019-06-08T11:26:03.448Z,1.93
2019-06-08T11:28:28.473Z,1.40
2019-06-08T11:30:56.442Z,1.90
2019-06-08T11:33:24.220Z,1.57
2019-06-08T11:35:52.030Z,2.40
2019-06-08T11:38:20.296Z,1.47
2019-06-08T11:40:48.290Z,1.80
2019-06-08T11:43:18.195Z,1.53
2019-06-08T11:45:47.917Z,1.77
2019-06-08T11:48:18.050Z,2.13
2019-06-08T11:50:45.254Z,1.50
2019-06-08T11:53:14.833Z,1.57
2019-06-08T11:55:43.302Z,2.10
2019-06-08T11:58:13.631Z,1.83
2019-06-08T12:01:03.291Z,1.40
2019-06-08T12:03:31.001Z,1.70
2019-06-08T12:05:58.770Z,1.30
2019-06-08T12:08:28.401Z,1.80
2019-06-08T12:11:01.193Z,1.90
2019-06-08T12:13:27.781Z,2.03
2019-06-08T12:15:55.590Z,1.97
2019-06-08T12:18:24.807Z,2.00
2019-06-08T12:20:52.626Z,1.80
2019-06-08T12:23:20.425Z,1.43
2019-06-08T12:25:48.220Z,1.73
2019-06-08T12:28:17.995Z,2.63
2019-06-08T12:30:47.881Z,1.80
2019-06-08T12:33:15.596Z,1.43
2019-06-08T12:35:43.958Z,1.73
2019-06-08T12:38:13.015Z,3.50
2019-06-08T12:40:41.510Z,1.53
2019-06-08T12:43:11.357Z,2.03
2019-06-08T12:45:38.961Z,1.50
2019-06-08T12:48:08.854Z,1.70
2019-06-08T12:50:38.675Z,1.20
2019-06-08T12:53:10.315Z,2.27
2019-06-08T12:55:37.719Z,2.77
2019-06-08T12:58:08.111Z,2.17
2019-06-08T13:00:37.807Z,1.67
2019-06-08T13:03:05.023Z,1.83
2019-06-08T13:05:32.766Z,1.50
2019-06-08T13:08:00.549Z,1.73
2019-06-08T13:10:28.304Z,1.53
2019-06-08T13:12:58.202Z,1.93
2019-06-08T13:15:28.217Z,12.37
2019-06-08T13:17:55.384Z,1.70
2019-06-08T13:20:23.151Z,2.00
2019-06-08T13:22:50.904Z,1.57
2019-06-08T13:25:31.953Z,1.73
2019-06-08T13:27:48.403Z,1.10
2019-06-08T13:30:19.737Z,1.80
2019-06-08T13:32:48.278Z,1.97
2019-06-08T13:35:19.134Z,1.70
2019-06-08T13:37:47.658Z,2.07
2019-06-08T13:40:18.582Z,1.73
2019-06-08T13:42:45.481Z,1.53
2019-06-08T13:45:16.243Z,1.43
2019-06-08T13:47:44.775Z,1.60
2019-06-08T13:50:13.053Z,1.20
2019-06-08T13:52:43.042Z,1.53
2019-06-08T13:55:29.915Z,1.70
2019-06-08T13:57:43.762Z,1.77
2019-06-08T14:00:11.752Z,1.60
2019-06-08T14:02:39.910Z,1.77
2019-06-08T14:05:10.640Z,1.70
2019-06-08T14:07:38.441Z,1.30
2019-06-08T14:10:06.893Z,1.30
2019-06-08T14:12:34.679Z,1.43
2019-06-08T14:15:02.811Z,1.70
2019-06-08T14:17:30.577Z,1.83
2019-06-08T14:19:59.250Z,1.83
2019-06-08T14:22:28.913Z,1.60
2019-06-08T14:24:57.005Z,1.80
2019-06-08T14:27:25.527Z,1.33
2019-06-08T14:29:55.249Z,1.90
2019-06-08T14:32:23.928Z,1.83
2019-06-08T14:34:53.603Z,1.27
2019-06-08T14:37:21.408Z,1.53
2019-06-08T14:39:49.565Z,1.47
2019-06-08T14:42:23.257Z,2.93
2019-06-08T14:44:47.672Z,2.03
2019-06-08T14:47:15.537Z,1.70
2019-06-08T14:49:44.968Z,1.43
2019-06-08T14:52:13.127Z,2.00
2019-06-08T14:54:40.860Z,2.30
2019-06-08T14:57:08.643Z,2.80
2019-06-08T14:59:37.673Z,2.80
2019-06-08T15:02:07.642Z,1.77
2019-06-08T15:04:39.966Z,2.00
2019-06-08T15:07:09.575Z,1.93
2019-06-08T15:09:37.716Z,2.00
2019-06-08T15:12:10.081Z,1.87
2019-06-08T15:14:38.567Z,2.60
2019-06-08T15:17:08.467Z,1.90
2019-06-08T15:19:37.967Z,1.47
2019-06-08T15:22:08.813Z,1.67
2019-06-08T15:24:37.640Z,1.70
2019-06-08T15:27:07.734Z,1.57
2019-06-08T15:29:35.032Z,1.90
2019-06-08T15:32:02.748Z,1.70
2019-06-08T15:34:32.742Z,1.43
2019-06-08T15:37:00.451Z,1.77
2019-06-08T15:39:31.787Z,2.37
2019-06-08T15:42:00.106Z,2.30
2019-06-08T15:44:30.401Z,1.50
2019-06-08T15:46:58.690Z,1.77
2019-06-08T15:49:29.015Z,2.23
2019-06-08T15:51:57.895Z,2.23
2019-06-08T15:54:29.018Z,1.50
2019-06-08T15:56:55.527Z,1.70
2019-06-08T15:59:23.320Z,2.17
2019-06-08T16:01:51.096Z,1.77
2019-06-08T16:04:18.934Z,2.60
2019-06-08T16:06:46.735Z,3.43
2019-06-08T16:09:14.563Z,1.63
2019-06-08T16:11:42.315Z,1.80
2019-06-08T16:14:10.079Z,2.07
2019-06-08T16:16:37.836Z,1.60
2019-06-08T16:19:05.602Z,1.50
2019-06-08T16:21:34.298Z,1.60
2019-06-08T16:24:02.184Z,1.90
2019-06-08T16:26:29.959Z,2.00
2019-06-08T16:28:57.768Z,1.70
2019-06-08T16:31:26.892Z,1.50
2019-06-08T16:33:54.851Z,1.87
2019-06-08T16:36:22.642Z,2.20
2019-06-08T16:38:52.843Z,2.83
2019-06-08T16:41:20.040Z,3.83
2019-06-08T16:43:47.772Z,2.57
2019-06-08T16:46:15.576Z,3.20
2019-06-08T16:48:45.131Z,2.47
2019-06-08T16:51:12.923Z,2.83
2019-06-08T16:53:40.658Z,2.10
2019-06-08T16:56:08.448Z,2.60
2019-06-08T16:58:36.263Z,2.60
2019-06-08T17:01:04.364Z,4.10
2019-06-08T17:03:32.845Z,6.40
2019-06-08T17:06:00.765Z,4.67
2019-06-08T17:08:29.455Z,3.40
2019-06-08T17:10:57.277Z,4.13
2019-06-08T17:13:25.016Z,2.50
2019-06-08T17:15:52.856Z,2.17
2019-06-08T17:18:20.596Z,2.50
2019-06-08T17:20:48.330Z,1.93
2019-06-08T17:23:16.123Z,2.43
2019-06-08T17:25:43.862Z,2.20
2019-06-08T17:28:11.606Z,1.67
2019-06-08T17:30:39.528Z,1.90
2019-06-08T17:33:07.589Z,1.93
2019-06-08T17:35:35.643Z,2.40
2019-06-08T17:38:03.606Z,1.73
2019-06-08T17:40:31.972Z,1.60
2019-06-08T17:42:59.880Z,1.80
2019-06-08T17:45:27.684Z,6.50
2019-06-08T17:47:55.607Z,1.70
2019-06-08T17:50:23.333Z,1.77
2019-06-08T17:52:51.111Z,2.17
2019-06-08T17:55:18.871Z,1.43
2019-06-08T17:57:53.219Z,2.33
2019-06-08T18:00:16.739Z,2.27
2019-06-08T18:02:45.393Z,5.80
2019-06-08T18:05:13.671Z,3.70
2019-06-08T18:07:43.833Z,6.70
2019-06-08T18:10:11.101Z,3.00
2019-06-08T18:12:42.534Z,1.90
2019-06-08T18:15:09.209Z,3.10
2019-06-08T18:17:40.785Z,2.10
2019-06-08T18:20:11.660Z,2.60
2019-06-08T18:22:42.821Z,2.47
2019-06-08T18:25:09.510Z,2.10
2019-06-08T18:27:40.453Z,2.60
2019-06-08T18:30:08.950Z,2.10
2019-06-08T18:32:40.197Z,2.13
2019-06-08T18:35:07.793Z,2.20
2019-06-08T18:37:38.122Z,2.93
2019-06-08T18:40:07.405Z,2.50
2019-06-08T18:42:35.980Z,3.10
2019-06-08T18:45:07.401Z,2.03
2019-06-08T18:47:37.860Z,1.90
2019-06-08T18:50:08.799Z,2.07
2019-06-08T18:52:39.865Z,2.00
2019-06-08T18:55:08.172Z,2.67
2019-06-08T18:57:35.469Z,2.37
2019-06-08T19:00:09.234Z,2.03
2019-06-08T19:02:34.330Z,2.10
2019-06-08T19:05:02.110Z,2.23
2019-06-08T19:07:30.998Z,2.20
2019-06-08T19:10:00.827Z,2.50
2019-06-08T19:12:28.559Z,3.93
2019-06-08T19:14:58.560Z,2.77
2019-06-08T19:17:28.439Z,2.67
2019-06-08T19:19:58.012Z,2.40
2019-06-08T19:22:29.932Z,2.30
2019-06-08T19:24:56.048Z,2.50
2019-06-08T19:27:23.856Z,2.40
2019-06-08T19:29:51.951Z,4.33
2019-06-08T19:32:19.844Z,3.30
2019-06-08T19:34:53.665Z,2.60
2019-06-08T19:37:19.206Z,2.83
2019-06-08T19:39:48.236Z,2.97
2019-06-08T19:42:17.560Z,2.73
2019-06-08T19:44:57.588Z,2.30
2019-06-08T19:47:17.155Z,2.20
2019-06-08T19:49:44.870Z,1.70
2019-06-08T19:52:12.651Z,4.30
2019-06-08T19:54:43.653Z,2.90
2019-06-08T19:57:10.185Z,2.00
2019-06-08T19:59:39.458Z,2.20
2019-06-08T20:02:08.816Z,1.60
2019-06-08T20:04:38.788Z,1.90
2019-06-08T20:07:08.728Z,2.10
2019-06-08T20:09:37.631Z,6.63
2019-06-08T20:12:07.639Z,2.33
2019-06-08T20:14:37.336Z,1.90
2019-06-08T20:17:05.121Z,2.10
2019-06-08T20:19:32.894Z,2.77
2019-06-08T20:22:00.646Z,2.50
2019-06-08T20:24:28.434Z,2.80
2019-06-08T20:26:56.290Z,2.63
2019-06-08T20:29:24.080Z,2.27
2019-06-08T20:31:51.839Z,3.03
2019-06-08T20:34:19.626Z,3.57
2019-06-08T20:36:48.623Z,2.27
2019-06-08T20:39:19.450Z,2.83
2019-06-08T20:41:48.938Z,3.27
2019-06-08T20:44:16.923Z,2.70
2019-06-08T20:46:44.684Z,2.70
2019-06-08T20:49:12.541Z,6.50
2019-06-08T20:51:40.265Z,8.10
2019-06-08T20:54:08.184Z,8.40
2019-06-08T20:56:37.695Z,8.13
2019-06-08T20:59:08.025Z,7.33
2019-06-08T21:01:35.152Z,5.93
2019-06-08T21:04:03.131Z,5.40
2019-06-08T21:06:30.865Z,4.23
2019-06-08T21:08:59.943Z,4.97
2019-06-08T21:11:29.632Z,4.50
2019-06-08T21:13:59.211Z,4.90
2019-06-08T21:16:27.658Z,4.20
2019-06-08T21:18:57.912Z,4.23
2019-06-08T21:21:28.107Z,3.83
2019-06-08T21:24:00.577Z,3.63
2019-06-08T21:26:25.410Z,2.90
2019-06-08T21:28:55.546Z,3.07
2019-06-08T21:31:22.830Z,3.20
2019-06-08T21:33:52.227Z,3.70
2019-06-08T21:36:20.311Z,2.67
2019-06-08T21:38:51.700Z,2.87
2019-06-08T21:41:17.854Z,2.93
2019-06-08T21:43:48.908Z,3.00
2019-06-08T21:46:16.564Z,2.77
2019-06-08T21:48:44.344Z,3.80
2019-06-08T21:51:13.237Z,4.30
2019-06-08T21:53:40.947Z,4.03
2019-06-08T21:56:10.528Z,4.17
2019-06-08T21:58:38.293Z,3.87
2019-06-08T22:01:07.363Z,3.27
2019-06-08T22:03:37.910Z,3.67
2019-06-08T22:06:07.917Z,3.97
2019-06-08T22:08:37.591Z,3.43
2019-06-08T22:11:08.324Z,3.03
2019-06-08T22:13:37.222Z,4.00
2019-06-08T22:16:07.747Z,4.13
2019-06-08T22:18:34.759Z,4.07
2019-06-08T22:21:03.637Z,4.00
2019-06-08T22:23:31.518Z,4.20
2019-06-08T22:26:00.766Z,3.33
2019-06-08T22:28:28.942Z,3.20
2019-06-08T22:31:00.172Z,2.50
2019-06-08T22:33:28.096Z,2.87
2019-06-08T22:35:58.579Z,2.40
2019-06-08T22:38:27.678Z,2.70
2019-06-08T22:40:57.652Z,3.10
2019-06-08T22:43:25.248Z,3.00
2019-06-08T22:45:54.311Z,3.63
2019-06-08T22:48:22.267Z,2.50
2019-06-08T22:50:50.036Z,2.80
2019-06-08T22:53:17.817Z,3.10
2019-06-08T22:55:47.508Z,4.73
2019-06-08T22:58:18.765Z,4.13
2019-06-08T23:00:52.134Z,4.93
2019-06-08T23:03:18.442Z,4.20
2019-06-08T23:05:47.668Z,4.00
2019-06-08T23:08:17.575Z,4.50
2019-06-08T23:10:45.398Z,4.20
2019-06-08T23:13:13.262Z,4.70
2019-06-08T23:15:41.054Z,3.90
2019-06-08T23:18:09.394Z,4.03
2019-06-08T23:20:37.574Z,3.33
2019-06-08T23:23:08.581Z,4.40
2019-06-08T23:25:37.267Z,4.33
2019-06-08T23:28:09.087Z,3.90
2019-06-08T23:30:38.287Z,3.63
2019-06-08T23:33:11.065Z,3.73
2019-06-08T23:35:47.915Z,4.50
2019-06-08T23:38:08.042Z,3.77
2019-06-08T23:40:37.715Z,4.17
2019-06-08T23:43:05.929Z,4.43
2019-06-08T23:45:33.903Z,3.73
2019-06-08T23:48:02.836Z,3.60
2019-06-08T23:50:30.701Z,3.33
2019-06-08T23:52:59.638Z,4.10
2019-06-08T23:55:28.239Z,3.30
2019-06-08T23:57:56.026Z,4.53
